Time;durP1;ratioP1;P1;durP2;ratioP2;P2;SDS_P1;SDS_P2;PMS_P1;PMS_P2;Temp;Humidity;BMP_temperature;BMP_pressure;BME280_temperature;BME280_humidity;BME280_pressure;Samples;Min_cycle;Max_cycle;Signal;HPM_P1;HPM_P2
2023/01/18 00:00:46;;;;;;;1999.90;999.90;;;;;;;0.73;100.00;92264.41;5067010;28;20171;-67
2023/01/18 00:03:12;;;;;;;1999.90;999.90;;;;;;;0.69;100.00;92277.16;5067012;28;20244;-66
2023/01/18 00:05:39;;;;;;;1999.90;999.90;;;;;;;0.65;100.00;92271.13;5066949;28;20168;-70
2023/01/18 00:08:15;;;;;;;1999.90;999.90;;;;;;;0.62;100.00;92269.25;5066861;28;20190;-69
2023/01/18 00:10:41;;;;;;;1999.90;999.90;;;;;;;0.57;100.00;92272.44;5067185;28;20164;-69
2023/01/18 00:13:06;;;;;;;1999.90;999.90;;;;;;;0.52;100.00;92264.13;5067347;28;20424;-68
2023/01/18 00:15:32;;;;;;;1999.90;999.90;;;;;;;0.45;100.00;92259.69;5067256;28;20171;-69
2023/01/18 00:17:58;;;;;;;1999.90;999.90;;;;;;;0.38;100.00;92253.72;5066617;28;20171;-69
2023/01/18 00:20:26;;;;;;;1999.90;999.90;;;;;;;0.36;100.00;92239.97;5066932;28;20191;-70
2023/01/18 00:22:51;;;;;;;1999.90;999.90;;;;;;;0.36;100.00;92240.72;5066862;28;20167;-69
2023/01/18 00:25:19;;;;;;;1999.90;999.90;;;;;;;0.33;100.00;92241.56;5067324;28;20200;-70
2023/01/18 00:27:49;;;;;;;1999.90;999.90;;;;;;;0.27;100.00;92227.13;5067254;28;20163;-69
2023/01/18 00:30:16;;;;;;;1999.90;999.90;;;;;;;0.24;100.00;92221.81;5067316;28;20237;-69
2023/01/18 00:32:43;;;;;;;1999.90;999.90;;;;;;;0.23;100.00;92217.63;5067307;28;20232;-69
2023/01/18 00:35:09;;;;;;;1999.90;999.90;;;;;;;0.18;100.00;92213.50;5066405;28;20159;-68
2023/01/18 00:37:35;;;;;;;1999.90;999.90;;;;;;;0.18;100.00;92213.50;5066673;28;20201;-69
2023/01/18 00:40:00;;;;;;;1999.90;999.90;;;;;;;0.14;100.00;92206.72;5067271;28;20163;-70
2023/01/18 00:45:10;;;;;;;1999.90;999.90;;;;;;;0.05;100.00;92193.88;5088191;28;20176;-69
2023/01/18 00:47:35;;;;;;;1999.90;999.90;;;;;;;-0.01;100.00;92190.16;5070369;28;20241;-72
2023/01/18 00:50:01;;;;;;;1999.90;999.90;;;;;;;-0.07;100.00;92194.53;5067643;28;20207;-68
2023/01/18 00:52:27;;;;;;;1999.90;999.90;;;;;;;-0.15;100.00;92191.22;5067108;28;20187;-66
2023/01/18 00:54:52;;;;;;;1999.90;999.90;;;;;;;-0.16;100.00;92183.59;5066899;28;20166;-68
2023/01/18 00:57:17;;;;;;;1999.90;999.90;;;;;;;-0.21;100.00;92186.78;5066907;28;20340;-68
2023/01/18 00:59:43;;;;;;;1999.90;999.90;;;;;;;-0.21;100.00;92181.41;5067209;28;20240;-68
2023/01/18 01:02:08;;;;;;;1999.90;999.90;;;;;;;-0.21;100.00;92168.00;5067382;28;20319;-69
2023/01/18 01:07:18;;;;;;;1999.90;999.90;;;;;;;-0.25;100.00;92164.66;5067796;28;20158;-68
2023/01/18 01:09:43;;;;;;;1999.90;999.90;;;;;;;-0.30;100.00;92157.06;5066648;28;20168;-70
2023/01/18 01:26:06;;;;;;;1999.90;999.90;;;;;;;-0.40;100.00;92121.28;5067480;28;20149;-70
2023/01/18 01:28:43;;;;;;;1999.90;999.90;;;;;;;-0.47;100.00;92124.13;5066839;28;20170;-69
2023/01/18 01:31:14;;;;;;;1999.90;999.90;;;;;;;-0.47;100.00;92110.00;5066801;28;20163;-70
2023/01/18 01:33:40;;;;;;;1999.90;999.90;;;;;;;-0.51;100.00;92098.59;5066438;28;20196;-70
2023/01/18 01:36:09;;;;;;;1999.90;999.90;;;;;;;-0.53;100.00;92090.19;5066763;28;20175;-70
2023/01/18 01:38:35;;;;;;;1999.90;999.90;;;;;;;-0.53;100.00;92088.28;5066658;28;20163;-68
2023/01/18 01:41:07;;;;;;;1999.90;999.90;;;;;;;-0.49;100.00;92064.84;5066733;28;20237;-69
2023/01/18 01:43:36;;;;;;;1999.90;999.90;;;;;;;-0.46;100.00;92057.91;5066661;28;20243;-70
2023/01/18 01:46:03;;;;;;;1999.90;999.90;;;;;;;-0.44;100.00;92047.50;5066040;28;20191;-69
2023/01/18 01:48:29;;;;;;;1999.90;999.90;;;;;;;-0.41;100.00;92028.69;5066316;28;20219;-70
2023/01/18 01:50:54;;;;;;;1999.90;999.90;;;;;;;-0.41;100.00;92022.56;5065817;28;20159;-70
2023/01/18 01:53:19;;;;;;;1999.90;999.90;;;;;;;-0.41;100.00;92009.16;5065538;28;20206;-69
2023/01/18 01:55:45;;;;;;;1999.90;999.90;;;;;;;-0.37;100.00;92010.59;5066407;28;20160;-71
2023/01/18 01:58:24;;;;;;;1999.90;999.90;;;;;;;-0.35;100.00;92010.19;5065792;28;20163;-70
2023/01/18 02:00:49;;;;;;;1999.90;999.90;;;;;;;-0.34;100.00;92017.06;5065961;28;20155;-68
2023/01/18 02:03:19;;;;;;;1999.90;999.90;;;;;;;-0.34;100.00;92036.56;5065749;28;20167;-69
2023/01/18 02:05:47;;;;;;;1999.90;999.90;;;;;;;-0.32;100.00;92033.47;5065918;28;20160;-69
2023/01/18 02:08:21;;;;;;;1999.90;999.90;;;;;;;-0.29;100.00;92040.69;5066335;28;20191;-71
2023/01/18 02:10:47;;;;;;;1999.90;999.90;;;;;;;-0.22;100.00;92041.28;5066078;28;20160;-71
2023/01/18 02:13:14;;;;;;;1999.90;999.90;;;;;;;-0.16;100.00;92038.84;5065865;28;20194;-69
2023/01/18 02:15:52;;;;;;;1999.90;999.90;;;;;;;-0.09;100.00;92044.03;5065766;28;20164;-71
2023/01/18 02:18:26;;;;;;;1999.90;999.90;;;;;;;-0.01;100.00;92050.75;5065331;28;20164;-70
2023/01/18 02:21:27;;;;;;;1999.90;999.90;;;;;;;0.13;100.00;92055.78;5065720;28;20182;-70
2023/01/18 02:24:25;;;;;;;1999.90;999.90;;;;;;;0.24;100.00;92071.59;5065099;28;20178;-68
2023/01/18 02:26:54;;;;;;;1999.90;999.90;;;;;;;0.35;100.00;92088.97;5064928;28;20173;-67
2023/01/18 02:29:43;;;;;;;1999.90;999.90;;;;;;;0.47;100.00;92101.69;5065545;28;20167;-67
2023/01/18 02:32:38;;;;;;;1999.90;999.90;;;;;;;0.62;100.00;92129.69;5065559;28;20207;-67
2023/01/18 02:35:11;;;;;;;1999.90;999.90;;;;;;;0.72;100.00;92144.78;5065097;28;20224;-67
2023/01/18 02:37:36;;;;;;;1999.90;999.90;;;;;;;0.83;100.00;92172.13;5064976;28;20171;-67
2023/01/18 02:40:43;;;;;;;1999.90;999.90;;;;;;;0.95;100.00;92190.25;5064928;28;20172;-67
2023/01/18 02:48:44;;;;;;;1999.90;999.90;;;;;;;1.19;100.00;92253.34;5073246;28;20225;-70
2023/01/18 02:51:10;;;;;;;1999.90;999.90;;;;;;;1.24;100.00;92271.63;5068661;28;20170;-68
2023/01/18 02:53:39;;;;;;;1999.90;999.90;;;;;;;1.28;100.00;92285.78;5067951;28;20294;-70
2023/01/18 02:56:32;;;;;;;1999.90;999.90;;;;;;;1.31;100.00;92302.97;5068615;28;20234;-68
2023/01/18 02:59:18;;;;;;;1999.90;999.90;;;;;;;1.33;100.00;92308.69;5068415;28;20235;-68
2023/01/18 03:01:53;;;;;;;1999.90;999.90;;;;;;;1.31;100.00;92314.47;5068402;28;20172;-68
2023/01/18 03:04:22;;;;;;;1999.90;999.90;;;;;;;1.29;100.00;92322.22;5068152;28;20241;-68
2023/01/18 03:06:57;;;;;;;1999.90;999.90;;;;;;;1.32;100.00;92326.75;5067341;28;20164;-68
2023/01/18 03:09:26;;;;;;;1999.90;999.90;;;;;;;1.35;100.00;92331.25;5068440;28;20160;-70
2023/01/18 03:11:51;;;;;;;1999.90;999.90;;;;;;;1.41;100.00;92345.72;5067680;28;20243;-70
2023/01/18 03:14:47;;;;;;;1999.90;999.90;;;;;;;1.44;100.00;92347.56;5067829;28;20169;-69
2023/01/18 03:17:24;;;;;;;1999.90;999.90;;;;;;;1.41;100.00;92356.47;5053604;28;20191;-70
2023/01/18 03:20:06;;;;;;;1999.90;999.90;;;;;;;1.39;100.00;92358.06;5067783;28;20223;-70
2023/01/18 03:25:30;;;;;;;1999.90;999.90;;;;;;;1.34;100.00;92375.44;5085314;28;20203;-69
2023/01/18 03:33:44;;;;;;;1999.90;999.90;;;;;;;1.26;100.00;92381.38;5084888;28;20253;-68
2023/01/18 03:36:31;;;;;;;1999.90;999.90;;;;;;;1.26;100.00;92382.16;5067345;28;20161;-68
2023/01/18 03:39:08;;;;;;;1999.90;999.90;;;;;;;1.25;100.00;92391.41;5067211;28;20176;-68
2023/01/18 03:41:39;;;;;;;1999.90;999.90;;;;;;;1.24;100.00;92389.13;5067881;28;20182;-68
2023/01/18 03:44:13;;;;;;;1999.90;999.90;;;;;;;1.22;100.00;92386.84;5067495;28;20167;-69
2023/01/18 03:46:39;;;;;;;1999.90;999.90;;;;;;;1.21;100.00;92398.78;5067680;28;20161;-69
2023/01/18 03:49:06;;;;;;;1999.90;999.90;;;;;;;1.21;100.00;92396.09;5067107;28;20226;-70
2023/01/18 03:51:34;;;;;;;1999.90;999.90;;;;;;;1.20;100.00;92402.63;5067271;28;20169;-69
2023/01/18 03:54:03;;;;;;;1999.90;999.90;;;;;;;1.18;100.00;92407.69;5067391;28;20195;-69
2023/01/18 03:56:39;;;;;;;1999.90;999.90;;;;;;;1.17;100.00;92406.13;5066961;28;20165;-70
2023/01/18 03:59:06;;;;;;;1999.90;999.90;;;;;;;1.14;100.00;92411.59;5067582;28;20180;-70
2023/01/18 04:01:31;;;;;;;1999.90;999.90;;;;;;;1.15;100.00;92413.09;5066983;28;20161;-71
2023/01/18 04:03:57;;;;;;;1999.90;999.90;;;;;;;1.17;100.00;92410.78;5067350;28;20164;-70
2023/01/18 04:06:24;;;;;;;1999.90;999.90;;;;;;;1.22;100.00;92408.34;5066967;28;20167;-73
2023/01/18 04:08:50;;;;;;;1999.90;999.90;;;;;;;1.25;100.00;92417.50;5067404;28;20168;-70
2023/01/18 04:11:16;;;;;;;1999.90;999.90;;;;;;;1.29;100.00;92415.50;5067557;28;20239;-71
2023/01/18 04:13:41;;;;;;;1999.90;999.90;;;;;;;1.29;100.00;92410.13;5066810;28;20211;-69
2023/01/18 04:16:06;;;;;;;1999.90;999.90;;;;;;;1.34;100.00;92413.06;5067966;28;20169;-70
2023/01/18 04:18:32;;;;;;;1999.90;999.90;;;;;;;1.39;100.00;92412.59;5071317;28;20238;-71
2023/01/18 04:20:58;;;;;;;1999.90;999.90;;;;;;;1.45;100.00;92421.63;5071279;28;20233;-71
2023/01/18 04:23:23;;;;;;;1999.90;999.90;;;;;;;1.48;100.00;92415.44;5071650;28;20172;-70
2023/01/18 04:25:50;;;;;;;1999.90;999.90;;;;;;;1.48;100.00;92418.13;5071061;28;20167;-70
2023/01/18 04:28:24;;;;;;;1999.90;999.90;;;;;;;1.46;100.00;92423.16;5070693;28;20187;-69
2023/01/18 04:30:54;;;;;;;1999.90;999.90;;;;;;;1.48;100.00;92403.91;5071280;28;20153;-69
2023/01/18 04:33:21;;;;;;;1999.90;999.90;;;;;;;1.47;100.00;92408.56;5070587;28;20189;-69
2023/01/18 04:35:48;;;;;;;1999.90;999.90;;;;;;;1.47;100.00;92408.56;5071111;28;20189;-68
2023/01/18 04:38:14;;;;;;;1999.90;999.90;;;;;;;1.41;100.00;92399.47;5070753;28;20168;-68
2023/01/18 04:40:40;;;;;;;1999.90;999.90;;;;;;;1.39;100.00;92404.53;5070488;28;20381;-70
2023/01/18 04:43:05;;;;;;;1999.90;999.90;;;;;;;1.39;100.00;92391.09;5070871;28;20195;-69
2023/01/18 04:45:30;;;;;;;1999.90;999.90;;;;;;;1.37;100.00;92395.34;5070191;28;20172;-71
2023/01/18 04:47:56;;;;;;;1999.90;999.90;;;;;;;1.38;100.00;92399.56;5070669;28;20192;-71
2023/01/18 04:50:22;;;;;;;1999.90;999.90;;;;;;;1.36;100.00;92397.28;5071108;28;20363;-72
2023/01/18 04:52:47;;;;;;;1999.90;999.90;;;;;;;1.37;100.00;92403.41;5070281;28;20267;-70
2023/01/18 04:55:14;;;;;;;1999.90;999.90;;;;;;;1.42;100.00;92400.97;5070720;28;20353;-71
2023/01/18 04:57:43;;;;;;;1999.90;999.90;;;;;;;1.49;100.00;92411.56;5070196;28;20172;-70
2023/01/18 05:00:11;;;;;;;1999.90;999.90;;;;;;;1.54;100.00;92413.78;5070561;28;20174;-70
2023/01/18 05:02:36;;;;;;;1999.90;999.90;;;;;;;1.69;100.00;92414.94;5070049;28;20204;-69
2023/01/18 05:05:04;;;;;;;1999.90;999.90;;;;;;;1.87;100.00;92419.91;5070247;28;20177;-71
2023/01/18 05:07:32;;;;;;;1999.90;999.90;;;;;;;1.91;100.00;92425.94;5070404;28;20168;-69
2023/01/18 05:09:57;;;;;;;1999.90;999.90;;;;;;;2.01;100.00;92420.28;5070379;28;20177;-69
2023/01/18 05:12:22;;;;;;;1999.90;999.90;;;;;;;2.14;100.00;92423.81;5069902;28;20264;-69
2023/01/18 05:14:48;;;;;;;1999.90;999.90;;;;;;;2.25;100.00;92437.75;5070337;28;20219;-69
2023/01/18 05:17:13;;;;;;;1999.90;999.90;;;;;;;2.27;100.00;92443.50;5070308;28;20236;-69
2023/01/18 05:19:39;;;;;;;1999.90;999.90;;;;;;;2.27;100.00;92454.25;5069739;28;20231;-70
2023/01/18 05:22:05;;;;;;;1999.90;999.90;;;;;;;2.27;100.00;92451.56;5070210;28;20176;-70
2023/01/18 05:24:31;;;;;;;1999.90;999.90;;;;;;;2.31;100.00;92463.00;5069546;28;20165;-70
2023/01/18 05:26:57;;;;;;;1999.90;999.90;;;;;;;2.32;100.00;92463.75;5069591;28;20169;-69
2023/01/18 05:29:22;;;;;;;1999.90;999.90;;;;;;;2.33;100.00;92473.34;5068919;28;20172;-71
2023/01/18 05:31:48;;;;;;;1999.90;999.90;;;;;;;2.29;100.00;92472.66;5069530;28;20169;-70
2023/01/18 05:34:13;;;;;;;1999.90;999.90;;;;;;;2.27;100.00;92473.09;5069370;28;20177;-70
2023/01/18 05:36:38;;;;;;;1999.90;999.90;;;;;;;2.28;100.00;92487.28;5069939;28;20241;-68
2023/01/18 05:39:04;;;;;;;1999.90;999.90;;;;;;;2.28;100.00;92480.00;5069405;28;20172;-69
2023/01/18 05:41:30;;;;;;;1999.90;999.90;;;;;;;2.31;100.00;92489.91;5069835;28;20192;-69
2023/01/18 05:43:55;;;;;;;1999.90;999.90;;;;;;;2.30;100.00;92485.69;5069748;28;20215;-70
2023/01/18 05:46:20;;;;;;;1999.90;999.90;;;;;;;2.29;100.00;92484.19;5069278;28;20200;-69
2023/01/18 05:48:45;;;;;;;1999.90;999.90;;;;;;;2.30;100.00;92485.69;5068980;28;20217;-70
2023/01/18 05:51:11;;;;;;;1999.90;999.90;;;;;;;2.32;100.00;92499.50;5069240;28;20165;-70
2023/01/18 05:53:37;;;;;;;1999.90;999.90;;;;;;;2.31;100.00;92498.00;5069480;28;20266;-70
2023/01/18 05:56:07;;;;;;;1999.90;999.90;;;;;;;2.34;100.00;92510.59;5069595;28;20207;-70
2023/01/18 05:58:33;;;;;;;1999.90;999.90;;;;;;;2.35;100.00;92509.44;5069123;28;20161;-70
2023/01/18 06:00:58;;;;;;;1999.90;999.90;;;;;;;2.43;100.00;92516.16;5068975;28;20167;-70
2023/01/18 06:03:24;;;;;;;1999.90;999.90;;;;;;;2.43;100.00;92513.44;5069005;28;20169;-69
2023/01/18 06:05:53;;;;;;;1999.90;999.90;;;;;;;2.41;100.00;92528.53;5068816;28;20173;-67
2023/01/18 06:08:19;;;;;;;1999.90;999.90;;;;;;;2.42;100.00;92527.34;5068784;28;20256;-73
2023/01/18 06:10:55;;;;;;;1999.90;999.90;;;;;;;2.40;100.00;92535.81;5068709;28;20173;-68
2023/01/18 06:13:26;;;;;;;1999.90;999.90;;;;;;;2.41;100.00;92547.38;5069253;28;20545;-69
2023/01/18 06:15:53;;;;;;;1999.90;999.90;;;;;;;2.42;100.00;92546.94;5069111;28;20192;-68
2023/01/18 06:18:19;;;;;;;1999.90;999.90;;;;;;;2.41;100.00;92548.09;5068368;28;20165;-68
2023/01/18 06:20:45;;;;;;;1999.90;999.90;;;;;;;2.41;100.00;92561.56;5068527;28;20199;-68
2023/01/18 06:23:10;;;;;;;1999.90;999.90;;;;;;;2.41;100.00;92561.56;5068925;28;20166;-68
2023/01/18 06:25:35;;;;;;;1999.90;999.90;;;;;;;2.41;100.00;92564.25;5068999;28;20172;-68
2023/01/18 06:28:03;;;;;;;1999.90;999.90;;;;;;;2.39;100.00;92563.94;5068375;28;20169;-69
2023/01/18 06:30:28;;;;;;;1999.90;999.90;;;;;;;2.40;100.00;92565.44;5068877;28;20173;-69
2023/01/18 06:32:53;;;;;;;1999.90;999.90;;;;;;;2.36;100.00;92569.38;5068738;28;20196;-70
2023/01/18 06:35:19;;;;;;;1999.90;999.90;;;;;;;2.34;100.00;92577.88;5068488;28;20169;-69
2023/01/18 06:37:45;;;;;;;1999.90;999.90;;;;;;;2.30;100.00;92561.06;5068624;28;20376;-68
2023/01/18 06:40:11;;;;;;;1999.90;999.90;;;;;;;2.29;100.00;92577.63;5067624;28;20232;-70
2023/01/18 06:42:37;;;;;;;1999.90;999.90;;;;;;;2.20;100.00;92572.84;5068116;28;20165;-69
2023/01/18 06:45:03;;;;;;;1999.90;999.90;;;;;;;2.19;100.00;92567.88;5068061;28;20176;-70
2023/01/18 06:47:28;;;;;;;1999.90;999.90;;;;;;;2.13;100.00;92575.69;5068572;28;20168;-73
2023/01/18 06:49:55;;;;;;;1999.90;999.90;;;;;;;2.08;100.00;92576.19;5067842;28;20232;-69
2023/01/18 06:52:21;;;;;;;1999.90;999.90;;;;;;;2.07;100.00;92569.28;5068700;28;20217;-69
2023/01/18 06:54:46;;;;;;;1999.90;999.90;;;;;;;2.01;100.00;92576.34;5067647;28;20173;-71
2023/01/18 06:57:12;;;;;;;1999.90;999.90;;;;;;;2.01;100.00;92584.41;5068189;28;20240;-69
2023/01/18 06:59:38;;;;;;;1999.90;999.90;;;;;;;1.99;100.00;92581.41;5067736;28;20175;-68
2023/01/18 07:02:03;;;;;;;1999.90;999.90;;;;;;;2.03;100.00;92584.75;5067428;28;20173;-68
2023/01/18 07:04:30;;;;;;;1999.90;999.90;;;;;;;2.05;100.00;92595.88;5068040;28;20200;-73
2023/01/18 07:06:56;;;;;;;1999.90;999.90;;;;;;;2.08;100.00;92597.72;5067492;28;20174;-66
2023/01/18 07:09:21;;;;;;;1999.90;999.90;;;;;;;2.09;100.00;92593.09;5067476;28;20166;-66
2023/01/18 07:11:46;;;;;;;1999.90;999.90;;;;;;;2.19;100.00;92598.22;5067578;28;20182;-69
2023/01/18 07:14:12;;;;;;;1999.90;999.90;;;;;;;2.26;100.00;92603.44;5067314;28;20247;-69
2023/01/18 07:16:38;;;;;;;1999.90;999.90;;;;;;;2.29;100.00;92613.38;5068066;28;20168;-70
2023/01/18 07:19:04;;;;;;;1999.90;999.90;;;;;;;2.27;100.00;92621.13;5067706;28;20176;-68
2023/01/18 07:21:30;;;;;;;1999.90;999.90;;;;;;;2.31;100.00;92621.03;5067756;28;20203;-68
2023/01/18 07:23:56;;;;;;;1999.90;999.90;;;;;;;2.33;100.00;92618.72;5067710;28;20168;-67
2023/01/18 07:26:22;;;;;;;1999.90;999.90;;;;;;;2.35;100.00;92621.72;5067154;28;20204;-67
2023/01/18 07:28:48;;;;;;;1999.90;999.90;;;;;;;2.40;100.00;92635.44;5067501;28;20191;-72
2023/01/18 07:31:14;;;;;;;1999.90;999.90;;;;;;;2.40;100.00;92640.81;5067149;28;20207;-67
2023/01/18 07:33:40;;;;;;;1999.90;999.90;;;;;;;2.44;100.00;92641.50;5067070;28;20196;-68
2023/01/18 07:36:06;;;;;;;1999.90;999.90;;;;;;;2.51;100.00;92646.72;5067214;28;20172;-69
2023/01/18 07:38:32;;;;;;;1999.90;999.90;;;;;;;2.58;100.00;92646.56;5067175;28;20243;-68
2023/01/18 07:41:01;;;;;;;1999.90;999.90;;;;;;;2.62;100.00;92644.53;5067124;28;20170;-67
2023/01/18 07:43:27;;;;;;;1999.90;999.90;;;;;;;2.72;100.00;92651.63;5067095;28;20173;-68
2023/01/18 07:45:53;;;;;;;1999.90;999.90;;;;;;;2.82;100.00;92653.31;5067087;28;20165;-69
2023/01/18 07:48:19;;;;;;;1999.90;999.90;;;;;;;2.88;100.00;92659.69;5067536;28;20270;-67
2023/01/18 07:50:52;;;;;;;1999.90;999.90;;;;;;;3.03;100.00;92655.47;5066659;28;20176;-69
2023/01/18 07:53:17;;;;;;;1999.90;999.90;;;;;;;3.14;100.00;92672.16;5067351;28;20188;-67
2023/01/18 07:55:43;;;;;;;1999.90;999.90;;;;;;;3.26;100.00;92674.16;5067446;28;20169;-70
2023/01/18 07:58:09;;;;;;;1999.90;999.90;;;;;;;3.42;100.00;92682.22;5066886;28;20176;-68
2023/01/18 08:00:34;;;;;;;1999.90;999.90;;;;;;;3.53;100.00;92677.31;5066846;28;20169;-67
2023/01/18 08:03:00;;;;;;;1999.90;999.90;;;;;;;3.79;100.00;92688.22;5067251;28;20199;-68
2023/01/18 08:05:26;;;;;;;1999.90;999.90;;;;;;;4.22;100.00;92693.97;5066886;28;20172;-69
2023/01/18 08:07:52;;;;;;;1999.90;999.90;;;;;;;4.64;100.00;92692.72;5066853;28;20169;-67
2023/01/18 08:10:18;;;;;;;1999.90;999.90;;;;;;;5.23;100.00;92706.31;5066864;28;20165;-66
2023/01/18 08:12:44;;;;;;;1999.90;999.90;;;;;;;6.25;100.00;92709.03;5066993;28;20193;-65
2023/01/18 08:15:10;;;;;;;1999.90;999.90;;;;;;;6.83;100.00;92710.00;5066858;28;20165;-66
2023/01/18 08:17:36;;;;;;;1999.90;999.90;;;;;;;7.13;100.00;92711.94;5066785;28;20190;-68
2023/01/18 08:20:04;;;;;;;1999.90;999.90;;;;;;;6.87;100.00;92705.19;5066688;28;20196;-67
2023/01/18 08:22:29;;;;;;;1999.90;999.90;;;;;;;6.93;100.00;92708.84;5066590;28;20172;-68
2023/01/18 08:24:55;;;;;;;1999.90;999.90;;;;;;;6.54;100.00;92714.97;5067315;28;20438;-69
2023/01/18 08:27:21;;;;;;;1999.90;999.90;;;;;;;6.24;100.00;92723.81;5067204;28;20173;-69
2023/01/18 08:29:47;;;;;;;1999.90;999.90;;;;;;;6.15;100.00;92726.44;5066701;28;20160;-70
2023/01/18 08:32:12;;;;;;;1999.90;999.90;;;;;;;5.83;100.00;92737.63;5066284;28;20267;-67
2023/01/18 08:34:38;;;;;;;1999.90;999.90;;;;;;;5.44;100.00;92740.81;5066726;28;20165;-68
2023/01/18 08:37:03;;;;;;;1999.90;999.90;;;;;;;5.27;100.00;92739.41;5067030;28;20191;-70
2023/01/18 08:39:29;;;;;;;1999.90;999.90;;;;;;;5.26;100.00;92749.50;5066605;28;20238;-67
2023/01/18 08:41:54;;;;;;;1999.90;999.90;;;;;;;5.07;100.00;92757.81;5066515;28;20171;-69
2023/01/18 08:44:20;;;;;;;1999.90;999.90;;;;;;;5.22;100.00;92756.19;5066856;28;20191;-68
2023/01/18 08:46:45;;;;;;;1999.90;999.90;;;;;;;5.10;100.00;92760.41;5066490;28;20348;-68
2023/01/18 08:49:10;;;;;;;1999.90;999.90;;;;;;;5.08;100.00;92759.31;5065892;28;20219;-68
2023/01/18 08:51:36;;;;;;;1999.90;999.90;;;;;;;5.30;100.00;92776.41;5066850;28;20175;-69
2023/01/18 08:54:01;;;;;;;1999.90;999.90;;;;;;;5.46;100.00;92776.31;5066824;28;20195;-67
2023/01/18 08:56:27;;;;;;;1999.90;999.90;;;;;;;5.60;100.00;92775.84;5066406;28;20196;-68
2023/01/18 08:58:52;;;;;;;1999.90;999.90;;;;;;;6.20;100.00;92785.47;5066325;28;20405;-68
2023/01/18 09:01:18;;;;;;;1999.90;999.90;;;;;;;6.57;100.00;92784.56;5066270;28;20282;-68
2023/01/18 09:03:43;;;;;;;1999.90;999.90;;;;;;;7.17;100.00;92793.94;5068248;28;20168;-68
2023/01/18 09:06:09;;;;;;;1999.90;999.90;;;;;;;7.41;100.00;92796.94;5069938;28;20199;-68
2023/01/18 09:08:35;;;;;;;1999.90;999.90;;;;;;;6.86;100.00;92809.47;5069848;28;20164;-67
2023/01/18 09:11:04;;;;;;;1999.90;999.90;;;;;;;6.59;100.00;92809.25;5069672;28;20172;-68
2023/01/18 09:13:30;;;;;;;1999.90;999.90;;;;;;;6.29;100.00;92812.63;5069628;28;20206;-69
2023/01/18 09:16:00;;;;;;;1999.90;999.90;;;;;;;5.93;100.00;92815.00;5069751;28;20173;-69
2023/01/18 09:18:26;;;;;;;1999.90;999.90;;;;;;;5.93;100.00;92828.56;5070299;28;20172;-69
2023/01/18 09:20:53;;;;;;;1999.90;999.90;;;;;;;5.67;100.00;92830.53;5069687;28;20233;-70
2023/01/18 09:23:19;;;;;;;1999.90;999.90;;;;;;;5.59;100.00;92828.47;5070177;28;20175;-68
2023/01/18 09:25:44;;;;;;;1999.90;999.90;;;;;;;5.64;100.00;92839.50;5070167;28;20194;-70
2023/01/18 09:28:11;;;;;;;1999.90;999.90;;;;;;;6.46;100.00;92838.38;5069617;28;20211;-70
2023/01/18 09:30:38;;;;;;;1999.90;999.90;;;;;;;7.45;100.00;92841.75;5069596;28;20169;-67
2023/01/18 09:33:03;;;;;;;1999.90;999.90;;;;;;;7.57;100.00;92838.16;5069366;28;20199;-68
2023/01/18 09:35:30;;;;;;;1999.90;999.90;;;;;;;7.72;100.00;92838.41;5070049;28;20171;-71
2023/01/18 09:37:56;;;;;;;1999.90;999.90;;;;;;;8.37;100.00;92850.50;5069214;28;20165;-70
2023/01/18 09:40:29;;;;;;;1999.90;999.90;;;;;;;8.68;100.00;92853.88;5069353;28;20173;-69
2023/01/18 09:42:55;;;;;;;1999.90;999.90;;;;;;;8.99;100.00;92851.75;5069909;28;20169;-69
2023/01/18 09:45:43;;;;;;;1999.90;999.90;;;;;;;9.74;100.00;92856.13;5069082;28;20208;-69
2023/01/18 09:48:44;;;;;;;1999.90;999.90;;;;;;;9.25;100.00;92852.91;5069544;28;20257;-70
2023/01/18 09:51:19;;;;;;;1999.90;999.90;;;;;;;9.00;100.00;92855.97;5052197;28;20196;-69
2023/01/18 09:54:02;;;;;;;1999.90;999.90;;;;;;;8.13;100.00;92863.13;5069599;28;20236;-69
2023/01/18 09:56:45;;;;;;;1999.90;999.90;;;;;;;6.93;100.00;92879.72;5069662;28;20170;-70
2023/01/18 09:59:42;;;;;;;1999.90;999.90;;;;;;;6.51;100.00;92889.31;5069583;28;20208;-69
2023/01/18 10:02:31;;;;;;;1999.90;999.90;;;;;;;6.37;100.00;92870.81;5069828;28;20201;-69
2023/01/18 10:05:10;;;;;;;1999.90;999.90;;;;;;;6.07;100.00;92895.81;5069877;28;20172;-67
2023/01/18 10:07:45;;;;;;;1999.90;999.90;;;;;;;6.64;100.00;92898.91;5069338;28;20240;-67
2023/01/18 10:10:17;;;;;;;1999.90;999.90;;;;;;;6.83;100.00;92899.84;5069380;28;20188;-67
2023/01/18 10:12:49;;;;;;;1999.90;999.90;;;;;;;6.89;100.00;92898.09;5068393;28;20195;-67
2023/01/18 10:15:19;;;;;;;1999.90;999.90;;;;;;;6.65;100.00;92905.88;5068300;28;20161;-67
2023/01/18 10:17:46;;;;;;;1999.90;999.90;;;;;;;6.27;100.00;92918.00;5068784;28;20164;-67
2023/01/18 10:20:39;;;;;;;1999.90;999.90;;;;;;;5.97;100.00;92921.28;5068554;28;20196;-68
2023/01/18 10:23:08;;;;;;;1999.90;999.90;;;;;;;6.14;100.00;92919.97;5068928;28;20171;-68
2023/01/18 10:25:41;;;;;;;1999.90;999.90;;;;;;;6.39;100.00;92925.34;5068402;28;20188;-66
2023/01/18 10:28:31;;;;;;;1999.90;999.90;;;;;;;6.26;100.00;92932.72;5068741;28;20206;-69
2023/01/18 10:31:09;;;;;;;1999.90;999.90;;;;;;;5.86;100.00;92942.50;5068871;28;20166;-69
2023/01/18 10:33:39;;;;;;;1999.90;999.90;;;;;;;5.92;100.00;92940.78;5068722;28;20211;-69
2023/01/18 10:36:22;;;;;;;1999.90;999.90;;;;;;;5.83;100.00;92954.22;5068307;28;20274;-69
2023/01/18 10:38:50;;;;;;;1999.90;999.90;;;;;;;5.90;100.00;92954.00;5068230;28;20168;-68
2023/01/18 10:41:24;;;;;;;1999.90;999.90;;;;;;;6.01;100.00;92963.31;5068462;28;20214;-68
2023/01/18 10:43:50;;;;;;;1999.90;999.90;;;;;;;6.28;100.00;92954.75;5068575;28;20239;-69
2023/01/18 10:46:18;;;;;;;1999.90;999.90;;;;;;;6.49;100.00;92951.34;5068004;28;20176;-68
2023/01/18 10:48:50;;;;;;;1999.90;999.90;;;;;;;6.39;100.00;92952.44;5068674;28;20210;-70
2023/01/18 10:51:39;;;;;;;1999.90;999.90;;;;;;;5.97;100.00;92964.59;5068482;28;20174;-70
2023/01/18 10:54:16;;;;;;;1999.90;999.90;;;;;;;6.08;100.00;92970.47;5067882;28;20202;-69
2023/01/18 10:56:43;;;;;;;1999.90;999.90;;;;;;;6.19;100.00;92973.59;5067891;28;20175;-69
2023/01/18 10:59:25;;;;;;;1999.90;999.90;;;;;;;6.47;100.00;92972.72;5067965;28;20175;-69
2023/01/18 11:01:55;;;;;;;1999.90;999.90;;;;;;;6.37;100.00;92976.50;5068272;28;20168;-69
2023/01/18 11:04:25;;;;;;;1999.90;999.90;;;;;;;5.99;100.00;92973.84;5068382;28;20172;-69
2023/01/18 11:06:55;;;;;;;1999.90;999.90;;;;;;;5.98;100.00;92988.56;5068089;28;20163;-70
2023/01/18 11:09:50;;;;;;;1999.90;999.90;;;;;;;5.69;100.00;92987.09;5068267;28;20239;-69
2023/01/18 11:12:40;;;;;;;1999.90;999.90;;;;;;;5.69;100.00;92997.94;5068085;28;20246;-68
2023/01/18 11:15:12;;;;;;;1999.90;999.90;;;;;;;5.44;100.00;93003.28;5068054;28;20190;-70
2023/01/18 11:17:37;;;;;;;1999.90;999.90;;;;;;;5.39;100.00;92995.69;5067481;28;20175;-69
2023/01/18 11:20:15;;;;;;;1999.90;999.90;;;;;;;5.38;100.00;93015.81;5067173;28;20358;-70
2023/01/18 11:23:02;;;;;;;1999.90;999.90;;;;;;;5.38;100.00;93015.81;5067493;28;20474;-70
2023/01/18 11:25:37;;;;;;;1999.90;999.90;;;;;;;5.28;100.00;93023.03;5067540;28;20179;-67
2023/01/18 11:28:06;;;;;;;1999.90;999.90;;;;;;;5.08;100.00;93013.53;5067624;28;20195;-68
2023/01/18 11:30:32;;;;;;;1999.90;999.90;;;;;;;5.18;100.00;93020.63;5067785;28;20297;-69
2023/01/18 11:33:01;;;;;;;1999.90;999.90;;;;;;;5.07;100.00;93017.44;5067159;28;20197;-69
2023/01/18 11:35:31;;;;;;;1999.90;999.90;;;;;;;5.05;100.00;93019.78;5067508;28;20177;-69